createdAt,value
2022-11-25T00:05:57.855Z,5.80
2022-11-25T00:16:08.267Z,5.60
2022-11-25T00:26:12.514Z,5.60
2022-11-25T00:36:24.659Z,5.60
2022-11-25T00:46:26.283Z,5.60
2022-11-25T00:56:27.988Z,5.50
2022-11-25T01:06:29.763Z,5.50
2022-11-25T01:16:32.212Z,5.50
2022-11-25T01:26:35.260Z,5.40
2022-11-25T01:36:36.913Z,5.40
2022-11-25T01:46:57.187Z,5.40
2022-11-25T01:57:04.899Z,5.40
2022-11-25T02:07:13.071Z,5.40
2022-11-25T02:17:14.834Z,5.40
2022-11-25T02:27:17.587Z,5.40
2022-11-25T02:37:21.699Z,5.30
2022-11-25T02:56:17.740Z,5.40
2022-11-25T03:16:21.464Z,5.20
2022-11-25T03:26:23.110Z,5.20
2022-11-25T03:36:24.747Z,5.20
2022-11-25T03:46:26.425Z,5.10
2022-11-25T03:56:28.113Z,5.10
2022-11-25T04:06:30.063Z,5.10
2022-11-25T04:16:32.168Z,5.10
2022-11-25T04:26:34.102Z,5.10
2022-11-25T04:36:35.704Z,5.10
2022-11-25T04:46:41.947Z,5.10
2022-11-25T04:56:43.607Z,5.10
2022-11-25T05:06:45.268Z,4.90
2022-11-25T05:16:47.041Z,5.00
2022-11-25T05:26:48.737Z,4.90
2022-11-25T05:36:51.869Z,4.90
2022-11-25T05:46:53.577Z,4.90
2022-11-25T05:56:55.179Z,4.80
2022-11-25T06:16:58.851Z,4.80
2022-11-25T06:27:01.015Z,4.90
2022-11-25T06:47:04.682Z,4.90
2022-11-25T06:57:06.766Z,4.70
2022-11-25T07:07:08.913Z,4.60
2022-11-25T07:17:12.315Z,4.50
2022-11-25T07:27:14.056Z,4.70
2022-11-25T07:47:19.418Z,4.80
2022-11-25T07:57:21.043Z,4.90
2022-11-25T08:07:22.769Z,5.00
2022-11-25T08:17:25.072Z,5.10
2022-11-25T08:27:26.698Z,5.20
2022-11-25T08:37:30.887Z,5.30
2022-11-25T08:47:32.743Z,5.40
2022-11-25T08:57:34.772Z,5.40
2022-11-25T09:07:36.411Z,5.40
2022-11-25T09:17:38.187Z,5.80
2022-11-25T09:27:39.792Z,6.20
2022-11-25T09:37:41.476Z,6.40
2022-11-25T09:48:01.859Z,6.50
2022-11-25T09:58:16.325Z,6.50
2022-11-25T10:08:24.928Z,6.60
2022-11-25T10:18:37.929Z,6.60
2022-11-25T10:28:43.859Z,6.60
2022-11-25T10:38:50.308Z,6.80
2022-11-25T10:49:03.094Z,6.90
2022-11-25T10:59:14.536Z,7.00
2022-11-25T11:09:37.374Z,7.00
2022-11-25T11:19:39.357Z,7.00
2022-11-25T11:29:41.120Z,7.00
2022-11-25T11:40:27.417Z,7.20
2022-11-25T11:50:29.012Z,7.30
2022-11-25T12:00:36.433Z,7.20
2022-11-25T12:10:45.609Z,7.20
2022-11-25T12:21:10.953Z,7.30
2022-11-25T12:31:30.220Z,7.40
2022-11-25T12:41:52.067Z,7.50
2022-11-25T12:52:22.001Z,7.60
2022-11-25T13:02:52.885Z,7.70
2022-11-25T13:13:13.522Z,7.70
2022-11-25T13:23:19.357Z,7.60
2022-11-25T13:33:24.064Z,7.70
2022-11-25T13:43:25.870Z,7.70
2022-11-25T13:53:34.731Z,7.70
2022-11-25T14:03:48.109Z,8.00
2022-11-25T14:14:29.544Z,7.90
2022-11-25T14:24:46.360Z,7.90
2022-11-25T14:34:54.933Z,7.80
2022-11-25T14:44:58.295Z,7.90
2022-11-25T14:55:01.989Z,7.90
2022-11-25T15:05:19.381Z,7.90
2022-11-25T15:15:21.027Z,7.90
2022-11-25T15:25:22.793Z,7.90
2022-11-25T15:35:26.428Z,7.80
2022-11-25T15:45:36.681Z,7.80
2022-11-25T15:55:39.540Z,7.80
2022-11-25T16:05:53.041Z,7.70
2022-11-25T16:16:13.834Z,7.80
2022-11-25T16:26:22.471Z,7.70
2022-11-25T16:36:24.266Z,7.80
2022-11-25T16:46:25.985Z,7.80
2022-11-25T16:56:28.979Z,7.80
2022-11-25T17:06:31.194Z,7.70
2022-11-25T17:16:32.934Z,7.60
2022-11-25T17:26:40.092Z,7.50
2022-11-25T17:36:42.588Z,7.40
2022-11-25T17:46:44.227Z,7.30
2022-11-25T17:56:50.712Z,7.30
2022-11-25T18:06:54.247Z,7.30
2022-11-25T18:16:58.014Z,7.20
2022-11-25T18:26:59.835Z,7.10
2022-11-25T18:37:02.968Z,7.10
2022-11-25T18:47:05.670Z,7.10
2022-11-25T18:57:09.447Z,7.00
2022-11-25T19:07:11.157Z,7.00
2022-11-25T19:17:20.113Z,7.00
2022-11-25T19:27:23.898Z,7.00
2022-11-25T19:37:25.512Z,7.00
2022-11-25T19:47:27.388Z,7.10
2022-11-25T19:57:29.058Z,7.00
2022-11-25T20:07:31.256Z,7.00
2022-11-25T20:17:34.487Z,6.90
2022-11-25T20:27:36.557Z,6.90
2022-11-25T20:37:53.693Z,6.80
2022-11-25T20:47:55.384Z,6.90
2022-11-25T20:57:56.991Z,7.00
2022-11-25T21:07:58.679Z,7.00
2022-11-25T21:18:00.339Z,7.10
2022-11-25T21:28:02.369Z,7.10
2022-11-25T21:38:06.899Z,7.10
2022-11-25T21:48:27.419Z,7.20
2022-11-25T21:58:30.498Z,7.30
2022-11-25T22:08:32.086Z,7.30
2022-11-25T22:18:36.013Z,7.30
2022-11-25T22:38:41.310Z,7.30
2022-11-25T22:48:43.036Z,7.30
2022-11-25T22:58:45.145Z,7.40
2022-11-25T23:08:46.779Z,7.30
2022-11-25T23:18:48.386Z,7.20
2022-11-25T23:28:50.116Z,7.00
2022-11-25T23:38:57.793Z,6.90
2022-11-25T23:49:02.604Z,6.80
